createdAt,value
2023-02-19T00:01:10.420Z,100.00
2023-02-19T00:03:38.127Z,100.00
2023-02-19T00:06:07.027Z,100.00
2023-02-19T00:08:34.839Z,100.00
2023-02-19T00:11:05.953Z,100.00
2023-02-19T00:13:36.956Z,100.00
2023-02-19T00:16:08.728Z,100.00
2023-02-19T00:18:35.914Z,100.00
2023-02-19T00:21:03.446Z,100.00
2023-02-19T00:23:30.260Z,100.00
2023-02-19T00:26:01.103Z,100.00
2023-02-19T00:28:36.777Z,100.00
2023-02-19T00:31:18.790Z,100.00
2023-02-19T00:33:46.924Z,100.00
2023-02-19T00:36:14.265Z,100.00
2023-02-19T00:38:42.868Z,100.00
2023-02-19T00:41:19.819Z,100.00
2023-02-19T00:43:55.235Z,100.00
2023-02-19T00:46:29.674Z,100.00
2023-02-19T00:48:57.881Z,100.00
2023-02-19T00:51:27.392Z,100.00
2023-02-19T00:53:54.662Z,100.00
2023-02-19T00:56:21.607Z,100.00
2023-02-19T00:58:48.583Z,100.00
2023-02-19T01:01:15.979Z,100.00
2023-02-19T01:03:42.593Z,100.00
2023-02-19T01:06:11.450Z,100.00
2023-02-19T01:08:38.271Z,100.00
2023-02-19T01:11:07.595Z,100.00
2023-02-19T01:13:34.939Z,100.00
2023-02-19T01:16:04.715Z,100.00
2023-02-19T01:18:32.089Z,100.00
2023-02-19T01:20:58.913Z,100.00
2023-02-19T01:23:25.777Z,100.00
2023-02-19T01:25:52.337Z,100.00
2023-02-19T01:28:18.799Z,100.00
2023-02-19T01:30:45.416Z,100.00
2023-02-19T01:33:12.016Z,100.00
2023-02-19T01:35:39.179Z,100.00
2023-02-19T01:38:07.447Z,100.00
2023-02-19T01:40:34.647Z,100.00
2023-02-19T01:43:01.267Z,100.00
2023-02-19T01:45:29.453Z,100.00
2023-02-19T01:48:04.139Z,100.00
2023-02-19T01:50:36.037Z,100.00
2023-02-19T01:53:06.260Z,100.00
2023-02-19T01:55:34.711Z,100.00
2023-02-19T01:58:02.198Z,100.00
2023-02-19T02:00:29.160Z,100.00
2023-02-19T02:02:58.092Z,100.00
2023-02-19T02:05:56.642Z,100.00
2023-02-19T02:08:43.873Z,100.00
2023-02-19T02:11:10.807Z,100.00
2023-02-19T02:13:39.114Z,100.00
2023-02-19T02:16:06.178Z,100.00
2023-02-19T02:18:35.386Z,100.00
2023-02-19T02:21:31.083Z,100.00
2023-02-19T02:24:09.520Z,100.00
2023-02-19T02:26:46.504Z,100.00
2023-02-19T02:29:20.639Z,100.00
2023-02-19T02:31:54.069Z,100.00
2023-02-19T02:34:27.118Z,100.00
2023-02-19T02:36:56.669Z,100.00
2023-02-19T02:39:27.068Z,100.00
2023-02-19T02:42:17.912Z,100.00
2023-02-19T02:45:11.289Z,100.00
2023-02-19T02:47:49.914Z,100.00
2023-02-19T02:50:25.588Z,100.00
2023-02-19T02:53:18.249Z,100.00
2023-02-19T02:55:49.122Z,100.00
2023-02-19T02:58:17.490Z,100.00
2023-02-19T03:01:09.002Z,100.00
2023-02-19T03:03:39.350Z,100.00
2023-02-19T03:06:08.323Z,100.00
2023-02-19T03:08:40.481Z,100.00
2023-02-19T03:11:30.742Z,100.00
2023-02-19T03:14:27.006Z,100.00
2023-02-19T03:17:19.166Z,100.00
2023-02-19T03:19:52.827Z,100.00
2023-02-19T03:22:42.230Z,100.00
2023-02-19T03:25:53.767Z,100.00
2023-02-19T03:28:53.576Z,100.00
2023-02-19T03:31:25.118Z,100.00
2023-02-19T03:33:57.400Z,100.00
2023-02-19T03:36:28.210Z,100.00
2023-02-19T03:39:06.728Z,100.00
2023-02-19T03:41:50.564Z,100.00
2023-02-19T03:44:27.574Z,100.00
2023-02-19T03:47:05.248Z,100.00
2023-02-19T03:49:37.569Z,100.00
2023-02-19T03:52:16.030Z,100.00
2023-02-19T03:55:06.515Z,100.00
2023-02-19T03:57:52.291Z,100.00
2023-02-19T04:00:23.217Z,100.00
2023-02-19T04:03:01.184Z,100.00
2023-02-19T04:05:35.880Z,100.00
2023-02-19T04:08:14.113Z,100.00
2023-02-19T04:10:46.946Z,100.00
2023-02-19T04:13:20.619Z,100.00
2023-02-19T04:15:50.364Z,100.00
2023-02-19T04:18:25.646Z,100.00
2023-02-19T04:20:52.988Z,100.00
2023-02-19T04:23:23.179Z,100.00
2023-02-19T04:25:56.181Z,100.00
2023-02-19T04:28:22.802Z,100.00
2023-02-19T04:30:49.427Z,100.00
2023-02-19T04:33:16.077Z,100.00
2023-02-19T04:35:42.682Z,100.00
2023-02-19T04:38:09.213Z,100.00
2023-02-19T04:40:35.618Z,100.00
2023-02-19T04:43:02.266Z,100.00
2023-02-19T04:45:28.785Z,100.00
2023-02-19T04:47:55.242Z,100.00
2023-02-19T04:50:23.178Z,100.00
2023-02-19T04:52:49.966Z,100.00
2023-02-19T04:55:16.743Z,100.00
2023-02-19T04:57:43.301Z,100.00
2023-02-19T05:00:10.505Z,100.00
2023-02-19T05:02:37.024Z,100.00
2023-02-19T05:05:04.113Z,100.00
2023-02-19T05:07:30.698Z,100.00
2023-02-19T05:09:57.220Z,100.00
2023-02-19T05:12:23.753Z,100.00
2023-02-19T05:14:50.277Z,100.00
2023-02-19T05:17:16.776Z,100.00
2023-02-19T05:19:43.251Z,100.00
2023-02-19T05:22:09.794Z,100.00
2023-02-19T05:24:36.219Z,100.00
2023-02-19T05:27:02.740Z,100.00
2023-02-19T05:29:30.910Z,100.00
2023-02-19T05:31:57.602Z,100.00
2023-02-19T05:34:24.213Z,100.00
2023-02-19T05:36:50.703Z,100.00
2023-02-19T05:39:17.141Z,100.00
2023-02-19T05:41:43.744Z,100.00
2023-02-19T05:44:11.404Z,100.00
2023-02-19T05:46:37.987Z,100.00
2023-02-19T05:49:04.645Z,100.00
2023-02-19T05:51:31.203Z,100.00
2023-02-19T05:53:58.102Z,100.00
2023-02-19T05:56:34.669Z,100.00
2023-02-19T05:59:03.983Z,100.00
2023-02-19T06:01:30.959Z,100.00
2023-02-19T06:03:58.136Z,100.00
2023-02-19T06:06:25.791Z,100.00
2023-02-19T06:08:53.170Z,100.00
2023-02-19T06:11:19.973Z,100.00
2023-02-19T06:13:46.943Z,100.00
2023-02-19T06:16:13.628Z,100.00
2023-02-19T06:18:42.960Z,100.00
2023-02-19T06:21:11.521Z,100.00
2023-02-19T06:23:39.365Z,100.00
2023-02-19T06:26:23.372Z,100.00
2023-02-19T06:28:51.570Z,100.00
2023-02-19T06:31:19.565Z,100.00
2023-02-19T06:33:46.815Z,100.00
2023-02-19T06:36:16.036Z,100.00
2023-02-19T06:38:43.057Z,100.00
2023-02-19T06:41:11.095Z,100.00
2023-02-19T06:43:37.996Z,100.00
2023-02-19T06:46:06.490Z,100.00
2023-02-19T06:48:33.864Z,100.00
2023-02-19T06:51:00.541Z,100.00
2023-02-19T06:53:27.533Z,100.00
2023-02-19T06:56:05.925Z,100.00
2023-02-19T06:58:34.114Z,100.00
2023-02-19T07:01:00.646Z,100.00
2023-02-19T07:03:27.204Z,100.00
2023-02-19T07:05:53.877Z,100.00
2023-02-19T07:08:20.668Z,100.00
2023-02-19T07:10:55.637Z,100.00
2023-02-19T07:13:22.876Z,100.00
2023-02-19T07:15:51.929Z,100.00
2023-02-19T07:18:18.629Z,98.60
2023-02-19T07:20:45.027Z,94.64
2023-02-19T07:23:11.563Z,96.29
2023-02-19T07:25:38.602Z,98.78
2023-02-19T07:28:06.089Z,98.45
2023-02-19T07:30:32.653Z,96.77
2023-02-19T07:32:59.302Z,96.72
2023-02-19T07:35:25.952Z,96.81
2023-02-19T07:37:52.440Z,97.20
2023-02-19T07:40:18.853Z,98.22
2023-02-19T07:42:45.330Z,97.29
2023-02-19T07:45:11.735Z,98.33
2023-02-19T07:47:38.160Z,94.94
2023-02-19T07:50:04.623Z,93.42
2023-02-19T07:52:31.310Z,94.79
2023-02-19T07:54:57.743Z,94.29
2023-02-19T07:57:24.159Z,93.75
2023-02-19T07:59:50.610Z,94.60
2023-02-19T08:02:36.190Z,93.84
2023-02-19T08:05:02.994Z,93.76
2023-02-19T08:07:34.752Z,92.34
2023-02-19T08:10:20.487Z,95.04
2023-02-19T08:13:16.729Z,96.20
2023-02-19T08:15:43.508Z,95.19
2023-02-19T08:18:10.567Z,95.58
2023-02-19T08:20:37.383Z,96.36
2023-02-19T08:23:04.182Z,96.23
2023-02-19T08:25:30.665Z,92.73
2023-02-19T08:27:57.088Z,94.85
2023-02-19T08:30:24.065Z,92.60
2023-02-19T08:32:50.600Z,93.24
2023-02-19T08:35:17.017Z,93.79
2023-02-19T08:37:43.525Z,92.35
2023-02-19T08:40:10.380Z,94.87
2023-02-19T08:42:36.905Z,95.16
2023-02-19T08:45:03.561Z,95.04
2023-02-19T08:47:30.010Z,97.75
2023-02-19T08:49:56.391Z,98.67
2023-02-19T08:52:22.864Z,96.64
2023-02-19T08:54:49.234Z,96.75
2023-02-19T08:57:15.849Z,95.89
2023-02-19T08:59:42.208Z,98.78
2023-02-19T09:02:09.576Z,100.00
2023-02-19T09:04:37.727Z,97.06
2023-02-19T09:07:07.717Z,100.00
2023-02-19T09:09:36.332Z,98.45
2023-02-19T09:12:05.227Z,93.37
2023-02-19T09:14:33.605Z,96.37
2023-02-19T09:17:01.294Z,98.33
2023-02-19T09:19:28.359Z,97.58
2023-02-19T09:21:55.515Z,96.72
2023-02-19T09:24:22.493Z,96.51
2023-02-19T09:26:50.389Z,96.04
2023-02-19T09:29:17.229Z,93.46
2023-02-19T09:31:43.908Z,93.54
2023-02-19T09:34:11.744Z,92.89
2023-02-19T09:36:39.599Z,93.28
2023-02-19T09:39:08.344Z,90.59
2023-02-19T09:41:46.389Z,92.64
2023-02-19T09:44:20.856Z,89.97
2023-02-19T09:46:49.797Z,91.62
2023-02-19T09:49:36.040Z,91.43
2023-02-19T09:52:07.694Z,90.59
2023-02-19T09:54:37.201Z,91.61
2023-02-19T09:57:04.830Z,89.55
2023-02-19T09:59:44.727Z,88.11
2023-02-19T10:02:15.773Z,88.20
2023-02-19T10:04:43.971Z,89.67
2023-02-19T10:07:13.366Z,90.83
2023-02-19T10:09:40.346Z,89.13
2023-02-19T10:12:16.034Z,90.11
2023-02-19T10:14:47.488Z,87.55
2023-02-19T10:17:23.513Z,88.83
2023-02-19T10:19:51.387Z,88.11
2023-02-19T10:22:19.220Z,88.53
2023-02-19T10:24:49.794Z,91.16
2023-02-19T10:27:16.236Z,91.97
2023-02-19T10:29:43.660Z,90.98
2023-02-19T10:32:23.951Z,93.08
2023-02-19T10:35:14.659Z,93.99
2023-02-19T10:37:49.878Z,91.26
2023-02-19T10:40:23.197Z,91.04
2023-02-19T10:42:53.682Z,90.50
2023-02-19T10:45:24.213Z,89.75
2023-02-19T10:47:51.443Z,89.68
2023-02-19T10:50:30.734Z,89.62
2023-02-19T10:52:58.941Z,90.88
2023-02-19T10:55:30.660Z,88.54
2023-02-19T10:57:58.002Z,87.75
2023-02-19T11:00:28.844Z,89.60
2023-02-19T11:03:16.953Z,90.82
2023-02-19T11:05:59.971Z,89.64
2023-02-19T11:08:27.337Z,92.33
2023-02-19T11:10:54.284Z,93.08
2023-02-19T11:13:30.940Z,93.41
2023-02-19T11:33:27.825Z,91.32
2023-02-19T11:36:18.292Z,92.32
2023-02-19T11:38:44.856Z,90.89
2023-02-19T11:41:21.211Z,90.19
2023-02-19T11:44:04.095Z,87.81
2023-02-19T11:47:13.624Z,84.64
2023-02-19T11:49:52.500Z,85.58
2023-02-19T11:52:45.007Z,86.48
2023-02-19T11:55:25.424Z,85.17
2023-02-19T11:58:12.179Z,83.72
2023-02-19T12:00:51.629Z,83.57
2023-02-19T12:03:49.272Z,85.10
2023-02-19T12:06:28.951Z,83.18
2023-02-19T12:09:27.959Z,80.91
2023-02-19T12:12:24.550Z,81.18
2023-02-19T12:15:13.224Z,77.55
2023-02-19T12:17:59.762Z,79.65
2023-02-19T12:20:43.651Z,81.88
2023-02-19T12:23:36.509Z,81.43
2023-02-19T12:26:23.942Z,80.37
2023-02-19T12:29:27.861Z,80.20
2023-02-19T12:32:13.158Z,78.87
2023-02-19T12:35:02.007Z,79.24
2023-02-19T12:37:58.923Z,79.43
2023-02-19T12:40:37.291Z,79.44
2023-02-19T12:43:11.007Z,80.60
2023-02-19T12:45:47.394Z,79.43
2023-02-19T12:48:16.856Z,81.74
2023-02-19T12:50:47.543Z,82.25
2023-02-19T12:53:30.031Z,82.46
2023-02-19T12:55:59.606Z,81.45
2023-02-19T12:58:31.265Z,80.94
2023-02-19T13:00:59.692Z,80.94
2023-02-19T13:03:34.178Z,84.33
2023-02-19T13:06:16.700Z,85.27
2023-02-19T13:09:06.447Z,87.33
2023-02-19T13:11:39.771Z,89.91
2023-02-19T13:14:17.827Z,89.96
2023-02-19T13:16:50.870Z,92.30
2023-02-19T13:19:17.412Z,90.64
2023-02-19T13:22:05.707Z,88.46
2023-02-19T13:24:36.300Z,90.26
2023-02-19T13:27:29.148Z,88.85
2023-02-19T13:30:07.574Z,87.92
2023-02-19T13:33:05.320Z,85.86
2023-02-19T13:36:06.004Z,87.82
2023-02-19T13:38:38.629Z,88.92
2023-02-19T13:41:05.598Z,89.27
2023-02-19T13:43:38.875Z,87.49
2023-02-19T13:46:12.327Z,88.59
2023-02-19T13:48:41.179Z,86.96
2023-02-19T13:51:16.892Z,84.74
2023-02-19T13:53:44.681Z,83.94
2023-02-19T13:56:37.777Z,83.71
2023-02-19T13:59:22.635Z,85.79
2023-02-19T14:01:58.245Z,86.00
2023-02-19T14:04:31.660Z,83.35
2023-02-19T14:07:04.072Z,84.77
2023-02-19T14:09:45.552Z,83.22
2023-02-19T14:12:16.133Z,82.33
2023-02-19T14:14:46.861Z,82.98
2023-02-19T14:17:31.850Z,83.33
2023-02-19T14:19:59.583Z,82.64
2023-02-19T14:22:47.799Z,82.59
2023-02-19T14:25:40.647Z,81.60
2023-02-19T14:28:33.491Z,81.16
2023-02-19T14:31:09.057Z,81.11
2023-02-19T14:33:40.133Z,79.68
2023-02-19T14:36:14.589Z,79.36
2023-02-19T14:38:56.621Z,79.73
2023-02-19T14:41:24.709Z,79.51
2023-02-19T14:43:54.144Z,80.58
2023-02-19T14:46:29.711Z,79.46
2023-02-19T14:49:02.607Z,81.16
2023-02-19T14:51:36.150Z,80.66
2023-02-19T14:54:14.076Z,79.98
2023-02-19T14:56:48.223Z,80.46
2023-02-19T14:59:23.909Z,80.34
2023-02-19T15:01:59.926Z,79.86
2023-02-19T15:04:31.247Z,79.68
2023-02-19T15:07:02.354Z,80.83
2023-02-19T15:09:33.162Z,79.10
2023-02-19T15:12:00.535Z,79.75
2023-02-19T15:14:30.661Z,78.92
2023-02-19T15:17:01.080Z,77.88
2023-02-19T15:19:29.340Z,78.30
2023-02-19T15:21:55.936Z,79.06
2023-02-19T15:24:22.696Z,78.15
2023-02-19T15:26:54.240Z,79.57
2023-02-19T15:29:25.330Z,79.66
2023-02-19T15:31:55.067Z,79.98
2023-02-19T15:34:24.578Z,78.24
2023-02-19T15:36:55.334Z,79.76
2023-02-19T15:39:30.566Z,79.54
2023-02-19T15:42:00.606Z,79.29
2023-02-19T15:45:03.927Z,78.20
2023-02-19T15:47:39.988Z,79.81
2023-02-19T15:50:15.104Z,80.43
2023-02-19T15:52:48.770Z,79.14
2023-02-19T15:55:36.616Z,79.62
2023-02-19T15:58:14.148Z,80.78
2023-02-19T16:00:54.151Z,80.33
2023-02-19T16:03:23.513Z,78.96
2023-02-19T16:06:10.630Z,80.16
2023-02-19T16:08:39.558Z,79.34
2023-02-19T16:11:27.548Z,79.74
2023-02-19T16:14:33.506Z,80.17
2023-02-19T16:17:12.009Z,80.57
2023-02-19T16:20:04.715Z,80.37
2023-02-19T16:22:40.589Z,82.01
2023-02-19T16:25:07.881Z,83.17
2023-02-19T16:27:38.538Z,85.67
2023-02-19T16:30:17.490Z,88.83
2023-02-19T16:32:45.312Z,89.50
2023-02-19T16:35:35.698Z,88.34
2023-02-19T16:38:02.937Z,90.65
2023-02-19T16:40:47.824Z,92.50
2023-02-19T16:43:14.350Z,93.20
2023-02-19T16:45:41.292Z,93.51
2023-02-19T16:48:08.930Z,93.83
2023-02-19T16:50:35.420Z,93.25
2023-02-19T16:53:02.841Z,92.99
2023-02-19T16:55:32.185Z,92.61
2023-02-19T16:57:58.684Z,92.69
2023-02-19T17:00:27.350Z,95.03
2023-02-19T17:02:57.106Z,95.33
2023-02-19T17:05:27.317Z,93.11
2023-02-19T17:07:53.775Z,95.04
2023-02-19T17:10:22.980Z,94.93
2023-02-19T17:12:53.533Z,93.71
2023-02-19T17:15:20.376Z,94.24
2023-02-19T17:17:47.083Z,93.17
2023-02-19T17:20:16.551Z,92.59
2023-02-19T17:22:43.733Z,92.73
2023-02-19T17:25:10.529Z,93.25
2023-02-19T17:27:37.047Z,94.56
2023-02-19T17:30:03.756Z,95.52
2023-02-19T17:32:30.383Z,95.39
2023-02-19T17:34:56.919Z,95.31
2023-02-19T17:37:23.309Z,95.54
2023-02-19T17:39:49.740Z,93.06
2023-02-19T17:42:16.138Z,91.62
2023-02-19T17:44:42.804Z,93.80
2023-02-19T17:47:09.294Z,91.67
2023-02-19T17:49:36.324Z,92.37
2023-02-19T17:52:02.818Z,93.70
2023-02-19T17:54:29.236Z,93.54
2023-02-19T17:56:55.719Z,92.11
2023-02-19T17:59:22.073Z,93.18
2023-02-19T18:01:48.552Z,92.71
2023-02-19T18:04:15.077Z,91.58
2023-02-19T18:06:42.885Z,90.89
2023-02-19T18:09:10.735Z,91.55
2023-02-19T18:11:37.496Z,91.71
2023-02-19T18:14:04.000Z,91.94
2023-02-19T18:16:30.396Z,91.90
2023-02-19T18:18:58.352Z,91.36
2023-02-19T18:21:25.086Z,90.84
2023-02-19T18:23:51.539Z,91.56
2023-02-19T18:26:19.673Z,91.40
2023-02-19T18:28:46.169Z,91.29
2023-02-19T18:31:13.052Z,91.52
2023-02-19T18:33:39.803Z,90.43
2023-02-19T18:36:10.030Z,90.51
2023-02-19T18:38:36.477Z,90.16
2023-02-19T18:41:02.829Z,90.66
2023-02-19T18:43:29.303Z,90.19
2023-02-19T18:45:55.719Z,89.68
2023-02-19T18:48:22.186Z,89.90
2023-02-19T18:50:48.576Z,89.93
2023-02-19T18:53:15.038Z,89.82
2023-02-19T18:55:41.683Z,88.31
2023-02-19T18:58:08.222Z,88.72
2023-02-19T19:00:34.777Z,88.67
2023-02-19T19:03:02.605Z,89.74
2023-02-19T19:05:29.141Z,88.46
2023-02-19T19:07:59.041Z,88.47
2023-02-19T19:10:26.301Z,89.29
2023-02-19T19:12:54.078Z,88.44
2023-02-19T19:15:20.955Z,89.14
2023-02-19T19:17:48.278Z,87.91
2023-02-19T19:20:17.744Z,86.72
2023-02-19T19:22:44.334Z,86.31
2023-02-19T19:25:10.822Z,87.90
2023-02-19T19:27:37.268Z,88.29
2023-02-19T19:30:04.802Z,88.47
2023-02-19T19:32:31.280Z,89.31
2023-02-19T19:34:57.793Z,87.29
2023-02-19T19:37:24.989Z,87.76
2023-02-19T19:39:52.616Z,86.04
2023-02-19T19:42:19.022Z,86.52
2023-02-19T19:44:45.532Z,87.16
2023-02-19T19:47:11.983Z,88.27
2023-02-19T19:49:38.683Z,86.65
2023-02-19T19:52:05.320Z,86.82
2023-02-19T19:54:31.821Z,87.10
2023-02-19T19:56:58.229Z,87.38
2023-02-19T19:59:24.834Z,85.47
2023-02-19T20:02:01.713Z,86.86
2023-02-19T20:04:28.197Z,86.66
2023-02-19T20:06:54.885Z,87.26
2023-02-19T20:09:25.409Z,87.68
2023-02-19T20:11:53.753Z,86.06
2023-02-19T20:14:22.489Z,85.57
2023-02-19T20:16:49.827Z,85.44
2023-02-19T20:19:17.835Z,86.75
2023-02-19T20:21:49.562Z,87.46
2023-02-19T20:24:17.983Z,85.84
2023-02-19T20:26:44.972Z,86.89
2023-02-19T20:29:11.850Z,86.24
2023-02-19T20:31:38.966Z,87.53
2023-02-19T20:34:05.690Z,84.16
2023-02-19T20:36:32.784Z,84.35
2023-02-19T20:38:59.267Z,85.22
2023-02-19T20:41:25.758Z,86.00
2023-02-19T20:43:52.264Z,84.19
2023-02-19T20:46:18.679Z,85.71
2023-02-19T20:48:45.208Z,85.46
2023-02-19T20:51:11.635Z,85.63
2023-02-19T20:53:39.330Z,84.97
2023-02-19T20:56:06.624Z,86.65
2023-02-19T20:58:33.670Z,86.09
2023-02-19T21:01:00.149Z,86.05
2023-02-19T21:03:26.616Z,84.09
2023-02-19T21:05:53.075Z,86.71
2023-02-19T21:08:19.464Z,85.74
2023-02-19T21:10:46.365Z,87.51
2023-02-19T21:13:13.353Z,86.50
2023-02-19T21:15:39.866Z,87.79
2023-02-19T21:18:06.349Z,87.82
2023-02-19T21:20:33.043Z,87.92
2023-02-19T21:22:59.521Z,86.60
2023-02-19T21:25:26.035Z,87.46
2023-02-19T21:27:52.582Z,87.57
2023-02-19T21:30:19.320Z,88.15
2023-02-19T21:32:45.791Z,86.40
2023-02-19T21:35:12.244Z,87.28
2023-02-19T21:37:42.102Z,85.80
2023-02-19T21:40:09.457Z,87.10
2023-02-19T21:42:35.933Z,87.79
2023-02-19T21:45:03.595Z,85.44
2023-02-19T21:47:30.042Z,86.21
2023-02-19T21:49:56.499Z,87.54
2023-02-19T21:52:23.384Z,86.61
2023-02-19T21:54:49.883Z,86.11
2023-02-19T21:57:16.363Z,86.70
2023-02-19T21:59:42.987Z,87.96
2023-02-19T22:02:09.565Z,88.44
2023-02-19T22:04:36.049Z,87.97
2023-02-19T22:07:02.418Z,88.14
2023-02-19T22:09:28.946Z,88.91
2023-02-19T22:11:55.466Z,88.93
2023-02-19T22:14:21.857Z,90.01
2023-02-19T22:16:48.496Z,90.58
2023-02-19T22:19:15.115Z,90.84
2023-02-19T22:21:43.956Z,89.49
2023-02-19T22:24:18.952Z,89.17
2023-02-19T22:26:45.950Z,90.82
2023-02-19T22:29:14.775Z,90.13
2023-02-19T22:31:41.422Z,91.59
2023-02-19T22:34:08.076Z,91.40
2023-02-19T22:36:37.214Z,91.24
2023-02-19T22:39:05.806Z,91.58
2023-02-19T22:41:32.625Z,91.07
2023-02-19T22:43:59.925Z,91.68
2023-02-19T22:46:29.737Z,91.67
2023-02-19T22:48:57.288Z,91.31
2023-02-19T22:51:24.683Z,90.77
2023-02-19T22:53:53.729Z,91.62
2023-02-19T22:56:22.494Z,91.31
2023-02-19T22:58:49.122Z,90.83
2023-02-19T23:17:29.668Z,94.84
2023-02-19T23:19:56.320Z,94.79
2023-02-19T23:22:22.827Z,94.49
2023-02-19T23:24:49.252Z,92.26
2023-02-19T23:27:15.905Z,92.22
2023-02-19T23:29:43.257Z,91.49
2023-02-19T23:32:10.652Z,92.10
2023-02-19T23:34:37.191Z,91.67
2023-02-19T23:37:03.654Z,90.41
2023-02-19T23:39:30.188Z,90.28
2023-02-19T23:41:57.887Z,90.50
2023-02-19T23:44:25.244Z,90.75
2023-02-19T23:46:52.537Z,91.14
2023-02-19T23:49:19.983Z,91.61
2023-02-19T23:51:46.543Z,91.59
2023-02-19T23:54:14.228Z,91.40
2023-02-19T23:56:41.184Z,90.72
2023-02-19T23:59:07.796Z,90.52
